sensor_id;sensor_type;location;lat;lon;timestamp;pressure;altitude;pressure_sealevel;temperature;humidity
63194;BME280;49289;51.670;5.624;2023-04-09T00:00:48;102717.80;;;17.59;50.19
63194;BME280;49289;51.670;5.624;2023-04-09T00:02:35;102719.83;;;17.41;50.02
63194;BME280;49289;51.670;5.624;2023-04-09T00:04:22;102699.52;;;17.51;50.10
63194;BME280;49289;51.670;5.624;2023-04-09T00:06:10;102717.53;;;17.73;49.88
63194;BME280;49289;51.670;5.624;2023-04-09T00:07:57;102700.92;;;17.69;50.02
63194;BME280;49289;51.670;5.624;2023-04-09T00:09:45;102720.59;;;17.81;49.59
63194;BME280;49289;51.670;5.624;2023-04-09T00:11:33;102705.55;;;17.52;50.46
63194;BME280;49289;51.670;5.624;2023-04-09T00:13:21;102702.30;;;17.67;49.76
63194;BME280;49289;51.670;5.624;2023-04-09T00:15:09;102700.89;;;17.65;50.19
63194;BME280;49289;51.670;5.624;2023-04-09T00:16:56;102718.44;;;17.85;50.25
63194;BME280;49289;51.670;5.624;2023-04-09T00:18:43;102718.50;;;17.90;50.17
63194;BME280;49289;51.670;5.624;2023-04-09T00:20:30;102446.36;;;16.24;50.36
63194;BME280;49289;51.670;5.624;2023-04-09T00:22:17;102711.98;;;17.51;50.62
63194;BME280;49289;51.670;5.624;2023-04-09T00:24:04;102691.78;;;17.42;50.41
63194;BME280;49289;51.670;5.624;2023-04-09T00:25:51;102704.60;;;17.61;50.17
63194;BME280;49289;51.670;5.624;2023-04-09T00:27:38;102686.52;;;17.63;50.12
63194;BME280;49289;51.670;5.624;2023-04-09T00:29:25;102690.83;;;17.55;50.51
63194;BME280;49289;51.670;5.624;2023-04-09T00:31:12;102690.66;;;17.57;50.35
63194;BME280;49289;51.670;5.624;2023-04-09T00:32:59;102702.88;;;17.56;50.52
63194;BME280;49289;51.670;5.624;2023-04-09T00:34:46;102681.60;;;17.59;50.21
63194;BME280;49289;51.670;5.624;2023-04-09T00:36:33;102682.25;;;17.64;49.99
63194;BME280;49289;51.670;5.624;2023-04-09T00:40:21;102689.34;;;17.54;50.12
63194;BME280;49289;51.670;5.624;2023-04-09T00:42:09;102682.72;;;17.65;49.89
63194;BME280;49289;51.670;5.624;2023-04-09T00:43:57;102697.91;;;17.81;49.87
63194;BME280;49289;51.670;5.624;2023-04-09T00:45:45;102677.15;;;17.73;49.82
63194;BME280;49289;51.670;5.624;2023-04-09T00:47:34;102680.02;;;17.40;50.33
63194;BME280;49289;51.670;5.624;2023-04-09T00:49:20;102694.16;;;17.65;50.21
63194;BME280;49289;51.670;5.624;2023-04-09T00:51:07;102670.98;;;17.61;50.24
63194;BME280;49289;51.670;5.624;2023-04-09T00:52:55;102672.20;;;17.66;50.07
63194;BME280;49289;51.670;5.624;2023-04-09T00:54:43;102686.02;;;17.67;50.56
63194;BME280;49289;51.670;5.624;2023-04-09T00:56:31;102686.51;;;17.74;50.19
63194;BME280;49289;51.670;5.624;2023-04-09T00:58:19;102683.06;;;17.69;50.04
63194;BME280;49289;51.670;5.624;2023-04-09T01:00:07;102669.22;;;17.57;50.56
63194;BME280;49289;51.670;5.624;2023-04-09T01:01:54;102680.41;;;17.58;50.61
63194;BME280;49289;51.670;5.624;2023-04-09T01:03:42;102683.84;;;17.67;50.52
63194;BME280;49289;51.670;5.624;2023-04-09T01:05:33;102684.48;;;17.75;50.15
63194;BME280;49289;51.670;5.624;2023-04-09T01:07:19;102671.02;;;17.44;50.60
63194;BME280;49289;51.670;5.624;2023-04-09T01:09:08;102684.14;;;17.54;50.46
63194;BME280;49289;51.670;5.624;2023-04-09T01:10:56;102682.91;;;17.73;50.23
63194;BME280;49289;51.670;5.624;2023-04-09T01:12:42;102667.22;;;17.61;50.40
63194;BME280;49289;51.670;5.624;2023-04-09T01:14:31;102680.19;;;17.45;50.71
63194;BME280;49289;51.670;5.624;2023-04-09T01:16:16;102664.16;;;17.29;51.09
63194;BME280;49289;51.670;5.624;2023-04-09T01:18:05;102677.77;;;17.51;50.94
63194;BME280;49289;51.670;5.624;2023-04-09T01:19:55;102676.61;;;17.29;50.77
63194;BME280;49289;51.670;5.624;2023-04-09T01:21:40;102658.83;;;17.29;50.90
63194;BME280;49289;51.670;5.624;2023-04-09T01:23:33;102674.52;;;17.44;50.91
63194;BME280;49289;51.670;5.624;2023-04-09T01:25:21;102658.01;;;17.46;50.76
63194;BME280;49289;51.670;5.624;2023-04-09T01:27:07;102660.75;;;17.47;50.78
63194;BME280;49289;51.670;5.624;2023-04-09T01:28:55;102660.69;;;17.36;50.82
63194;BME280;49289;51.670;5.624;2023-04-09T01:30:42;102660.86;;;17.40;50.93
63194;BME280;49289;51.670;5.624;2023-04-09T01:32:29;102661.04;;;17.32;50.96
63194;BME280;49289;51.670;5.624;2023-04-09T01:34:16;102671.70;;;17.37;51.09
63194;BME280;49289;51.670;5.624;2023-04-09T01:36:04;102658.69;;;17.24;51.23
63194;BME280;49289;51.670;5.624;2023-04-09T01:37:52;102672.97;;;17.51;51.08
63194;BME280;49289;51.670;5.624;2023-04-09T01:39:40;102672.84;;;17.37;51.14
63194;BME280;49289;51.670;5.624;2023-04-09T01:41:28;102667.91;;;17.47;51.09
63194;BME280;49289;51.670;5.624;2023-04-09T01:43:16;102652.67;;;17.46;50.94
63194;BME280;49289;51.670;5.624;2023-04-09T01:45:04;102650.49;;;17.15;51.56
63194;BME280;49289;51.670;5.624;2023-04-09T01:46:52;102655.29;;;17.30;51.28
63194;BME280;49289;51.670;5.624;2023-04-09T01:48:40;102657.34;;;17.25;51.37
63194;BME280;49289;51.670;5.624;2023-04-09T01:50:27;102653.62;;;17.41;50.86
63194;BME280;49289;51.670;5.624;2023-04-09T01:52:14;102654.41;;;17.48;51.03
63194;BME280;49289;51.670;5.624;2023-04-09T01:54:01;102652.41;;;17.19;51.25
63194;BME280;49289;51.670;5.624;2023-04-09T01:55:48;102654.49;;;17.11;51.49
63194;BME280;49289;51.670;5.624;2023-04-09T01:57:35;102651.11;;;17.23;51.50
63194;BME280;49289;51.670;5.624;2023-04-09T01:59:22;102664.88;;;17.37;51.52
63194;BME280;49289;51.670;5.624;2023-04-09T02:01:11;102649.02;;;17.24;51.70
63194;BME280;49289;51.670;5.624;2023-04-09T02:03:00;102643.16;;;17.25;51.71
63194;BME280;49289;51.670;5.624;2023-04-09T02:04:45;102648.73;;;17.32;51.49
63194;BME280;49289;51.670;5.624;2023-04-09T02:06:33;102668.55;;;17.03;52.17
63194;BME280;49289;51.670;5.624;2023-04-09T02:08:20;102647.22;;;17.06;51.80
63194;BME280;49289;51.670;5.624;2023-04-09T02:10:07;102670.17;;;17.32;51.79
63194;BME280;49289;51.670;5.624;2023-04-09T02:11:54;102652.73;;;17.00;52.06
63194;BME280;49289;51.670;5.624;2023-04-09T02:13:41;102672.47;;;17.21;52.13
63194;BME280;49289;51.670;5.624;2023-04-09T02:15:28;102674.91;;;17.28;52.01
63194;BME280;49289;51.670;5.624;2023-04-09T02:17:15;102671.02;;;17.39;51.72
63194;BME280;49289;51.670;5.624;2023-04-09T02:19:04;102652.73;;;17.26;51.75
63194;BME280;49289;51.670;5.624;2023-04-09T02:20:51;102668.15;;;17.38;51.77
63194;BME280;49289;51.670;5.624;2023-04-09T02:22:38;102654.36;;;17.31;51.39
63194;BME280;49289;51.670;5.624;2023-04-09T02:24:26;102656.56;;;17.22;51.54
63194;BME280;49289;51.670;5.624;2023-04-09T02:26:13;102648.68;;;17.38;51.32
63194;BME280;49289;51.670;5.624;2023-04-09T02:28:00;102647.94;;;17.44;51.21
63194;BME280;49289;51.670;5.624;2023-04-09T02:29:49;102668.13;;;17.46;51.41
63194;BME280;49289;51.670;5.624;2023-04-09T02:31:36;102662.80;;;17.10;52.00
63194;BME280;49289;51.670;5.624;2023-04-09T02:33:24;102660.95;;;17.07;51.94
63194;BME280;49289;51.670;5.624;2023-04-09T02:35:12;102646.84;;;17.30;51.49
63194;BME280;49289;51.670;5.624;2023-04-09T02:37:00;102644.11;;;17.22;51.36
63194;BME280;49289;51.670;5.624;2023-04-09T02:38:48;102643.97;;;17.10;51.61
63194;BME280;49289;51.670;5.624;2023-04-09T02:40:36;102649.58;;;17.24;51.69
63194;BME280;49289;51.670;5.624;2023-04-09T02:42:24;102638.30;;;16.94;51.99
63194;BME280;49289;51.670;5.624;2023-04-09T02:44:12;102648.86;;;17.15;51.73
63194;BME280;49289;51.670;5.624;2023-04-09T02:46:00;102636.05;;;17.17;51.61
63194;BME280;49289;51.670;5.624;2023-04-09T02:47:48;102634.11;;;17.20;51.64
63194;BME280;49289;51.670;5.624;2023-04-09T02:49:36;102651.42;;;17.30;51.71
63194;BME280;49289;51.670;5.624;2023-04-09T02:51:24;102646.05;;;17.37;51.79
63194;BME280;49289;51.670;5.624;2023-04-09T02:53:12;102635.11;;;17.16;52.06
63194;BME280;49289;51.670;5.624;2023-04-09T02:55:00;102633.80;;;17.16;51.95
63194;BME280;49289;51.670;5.624;2023-04-09T02:56:48;102632.42;;;16.68;52.70
63194;BME280;49289;51.670;5.624;2023-04-09T02:58:36;102633.16;;;16.88;52.19
63194;BME280;49289;51.670;5.624;2023-04-09T03:00:25;102630.38;;;16.99;52.01
63194;BME280;49289;51.670;5.624;2023-04-09T03:02:12;102632.41;;;17.09;52.20
63194;BME280;49289;51.670;5.624;2023-04-09T03:03:59;102632.17;;;17.05;52.39
63194;BME280;49289;51.670;5.624;2023-04-09T03:05:46;102646.70;;;17.21;52.13
63194;BME280;49289;51.670;5.624;2023-04-09T03:07:33;102630.69;;;17.00;52.28
63194;BME280;49289;51.670;5.624;2023-04-09T03:09:20;102626.91;;;16.84;52.61
63194;BME280;49289;51.670;5.624;2023-04-09T03:11:08;102647.36;;;16.91;52.51
63194;BME280;49289;51.670;5.624;2023-04-09T03:12:55;102627.42;;;17.03;52.32
63194;BME280;49289;51.670;5.624;2023-04-09T03:14:43;102626.89;;;17.18;52.03
63194;BME280;49289;51.670;5.624;2023-04-09T03:16:30;102624.19;;;17.05;52.04
63194;BME280;49289;51.670;5.624;2023-04-09T03:18:17;102640.09;;;16.79;52.44
63194;BME280;49289;51.670;5.624;2023-04-09T03:20:04;102629.06;;;16.93;52.18
63194;BME280;49289;51.670;5.624;2023-04-09T03:21:51;102625.56;;;16.97;52.23
63194;BME280;49289;51.670;5.624;2023-04-09T03:23:38;102618.13;;;16.88;51.86
63194;BME280;49289;51.670;5.624;2023-04-09T03:25:25;102624.42;;;16.75;52.39
63194;BME280;49289;51.670;5.624;2023-04-09T03:27:12;102626.13;;;16.87;52.73
63194;BME280;49289;51.670;5.624;2023-04-09T03:28:59;102639.84;;;16.97;52.32
63194;BME280;49289;51.670;5.624;2023-04-09T03:30:46;102618.57;;;16.91;52.12
63194;BME280;49289;51.670;5.624;2023-04-09T03:32:33;102620.31;;;16.93;52.44
63194;BME280;49289;51.670;5.624;2023-04-09T03:34:20;102613.48;;;16.73;52.49
63194;BME280;49289;51.670;5.624;2023-04-09T03:36:07;102629.56;;;16.84;52.66
63194;BME280;49289;51.670;5.624;2023-04-09T03:37:55;102626.81;;;16.42;52.49
63194;BME280;49289;51.670;5.624;2023-04-09T03:39:42;102632.23;;;16.35;53.04
63194;BME280;49289;51.670;5.624;2023-04-09T03:41:29;102621.03;;;16.68;52.57
63194;BME280;49289;51.670;5.624;2023-04-09T03:43:16;102629.41;;;16.63;52.40
63194;BME280;49289;51.670;5.624;2023-04-09T03:45:05;102603.96;;;16.62;52.50
63194;BME280;49289;51.670;5.624;2023-04-09T03:46:52;102617.99;;;16.72;51.97
63194;BME280;49289;51.670;5.624;2023-04-09T03:48:40;102617.75;;;16.60;52.15
63194;BME280;49289;51.670;5.624;2023-04-09T03:50:28;102617.14;;;16.58;52.10
63194;BME280;49289;51.670;5.624;2023-04-09T03:52:17;102614.20;;;16.57;51.86
63194;BME280;49289;51.670;5.624;2023-04-09T03:54:05;102615.53;;;16.62;52.28
63194;BME280;49289;51.670;5.624;2023-04-09T03:55:53;102613.46;;;16.80;51.79
63194;BME280;49289;51.670;5.624;2023-04-09T03:57:41;102601.38;;;16.69;51.28
63194;BME280;49289;51.670;5.624;2023-04-09T03:59:29;102614.62;;;16.75;51.59
63194;BME280;49289;51.670;5.624;2023-04-09T04:01:17;102599.09;;;16.52;51.76
63194;BME280;49289;51.670;5.624;2023-04-09T04:03:05;102597.84;;;16.56;51.64
63194;BME280;49289;51.670;5.624;2023-04-09T04:04:53;102613.81;;;16.64;52.10
63194;BME280;49289;51.670;5.624;2023-04-09T04:06:41;102612.67;;;16.68;52.03
63194;BME280;49289;51.670;5.624;2023-04-09T04:08:28;102608.72;;;16.64;51.66
63194;BME280;49289;51.670;5.624;2023-04-09T04:10:16;102611.23;;;16.55;51.27
63194;BME280;49289;51.670;5.624;2023-04-09T04:12:03;102612.58;;;16.23;52.04
63194;BME280;49289;51.670;5.624;2023-04-09T04:13:50;102612.93;;;16.47;51.45
63194;BME280;49289;51.670;5.624;2023-04-09T04:15:37;102620.59;;;16.30;51.40
63194;BME280;49289;51.670;5.624;2023-04-09T04:17:25;102613.52;;;15.72;51.45
63194;BME280;49289;51.670;5.624;2023-04-09T04:19:13;102607.85;;;15.87;51.85
63194;BME280;49289;51.670;5.624;2023-04-09T04:21:01;102630.11;;;16.21;51.02
63194;BME280;49289;51.670;5.624;2023-04-09T04:22:49;102625.00;;;16.30;50.98
63194;BME280;49289;51.670;5.624;2023-04-09T04:24:37;102600.63;;;16.24;50.51
63194;BME280;49289;51.670;5.624;2023-04-09T04:26:25;102620.49;;;15.73;51.70
63194;BME280;49289;51.670;5.624;2023-04-09T04:28:12;102621.44;;;15.73;51.50
63194;BME280;49289;51.670;5.624;2023-04-09T04:30:01;102621.55;;;15.71;51.34
63194;BME280;49289;51.670;5.624;2023-04-09T04:31:48;102624.64;;;15.55;51.56
63194;BME280;49289;51.670;5.624;2023-04-09T04:33:35;102607.62;;;15.51;51.47
63194;BME280;49289;51.670;5.624;2023-04-09T04:35:22;102627.02;;;15.20;52.18
63194;BME280;49289;51.670;5.624;2023-04-09T04:37:12;102629.78;;;15.52;51.58
63194;BME280;49289;51.670;5.624;2023-04-09T04:38:57;102612.59;;;15.20;51.74
63194;BME280;49289;51.670;5.624;2023-04-09T04:40:44;102447.84;;;14.41;51.57
63194;BME280;49289;51.670;5.624;2023-04-09T04:42:31;102616.52;;;15.53;51.28
63194;BME280;49289;51.670;5.624;2023-04-09T04:44:18;102615.41;;;15.52;51.27
63194;BME280;49289;51.670;5.624;2023-04-09T04:46:05;102612.53;;;15.20;51.89
63194;BME280;49289;51.670;5.624;2023-04-09T04:47:52;102632.14;;;15.14;52.56
63194;BME280;49289;51.670;5.624;2023-04-09T04:49:39;102614.22;;;14.98;52.50
63194;BME280;49289;51.670;5.624;2023-04-09T04:52:05;102613.10;;;14.98;52.46
63194;BME280;49289;51.670;5.624;2023-04-09T04:53:53;102616.23;;;15.01;52.54
63194;BME280;49289;51.670;5.624;2023-04-09T04:55:40;102633.49;;;15.14;52.33
63194;BME280;49289;51.670;5.624;2023-04-09T04:57:27;102628.88;;;15.15;52.39
63194;BME280;49289;51.670;5.624;2023-04-09T04:59:14;102617.14;;;14.99;52.41
63194;BME280;49289;51.670;5.624;2023-04-09T05:01:01;102616.78;;;14.85;52.86
63194;BME280;49289;51.670;5.624;2023-04-09T05:02:48;102618.77;;;14.45;53.45
63194;BME280;49289;51.670;5.624;2023-04-09T05:04:35;102617.67;;;14.76;53.36
63194;BME280;49289;51.670;5.624;2023-04-09T05:06:24;102633.87;;;14.78;53.78
63194;BME280;49289;51.670;5.624;2023-04-09T05:08:11;102629.86;;;14.84;53.52
63194;BME280;49289;51.670;5.624;2023-04-09T05:09:58;102615.08;;;14.80;53.46
63194;BME280;49289;51.670;5.624;2023-04-09T05:11:45;102611.30;;;14.76;53.35
63194;BME280;49289;51.670;5.624;2023-04-09T05:13:32;102613.77;;;14.69;53.60
63194;BME280;49289;51.670;5.624;2023-04-09T05:15:19;102626.33;;;14.66;53.86
63194;BME280;49289;51.670;5.624;2023-04-09T05:17:07;102627.30;;;14.70;53.82
63194;BME280;49289;51.670;5.624;2023-04-09T05:18:55;102615.83;;;14.58;53.94
63194;BME280;49289;51.670;5.624;2023-04-09T05:22:32;102628.87;;;14.41;54.70
63194;BME280;49289;51.670;5.624;2023-04-09T05:24:19;102631.02;;;14.46;54.30
63194;BME280;49289;51.670;5.624;2023-04-09T05:26:07;102614.88;;;14.01;55.18
63194;BME280;49289;51.670;5.624;2023-04-09T05:27:56;102611.70;;;14.20;54.96
63194;BME280;49289;51.670;5.624;2023-04-09T05:29:44;102615.86;;;14.37;54.70
63194;BME280;49289;51.670;5.624;2023-04-09T05:31:31;102617.46;;;14.44;54.23
63194;BME280;49289;51.670;5.624;2023-04-09T05:33:19;102618.11;;;14.45;54.40
63194;BME280;49289;51.670;5.624;2023-04-09T05:35:08;102635.42;;;14.51;54.47
63194;BME280;49289;51.670;5.624;2023-04-09T05:36:55;102620.33;;;14.34;54.72
63194;BME280;49289;51.670;5.624;2023-04-09T05:38:42;102612.93;;;14.39;54.45
63194;BME280;49289;51.670;5.624;2023-04-09T05:40:29;102619.73;;;14.40;54.60
63194;BME280;49289;51.670;5.624;2023-04-09T05:42:16;102620.32;;;14.45;54.62
63194;BME280;49289;51.670;5.624;2023-04-09T05:44:03;102619.09;;;14.51;54.34
63194;BME280;49289;51.670;5.624;2023-04-09T05:45:50;102626.48;;;14.41;54.82
63194;BME280;49289;51.670;5.624;2023-04-09T05:47:37;102621.79;;;14.49;54.67
63194;BME280;49289;51.670;5.624;2023-04-09T05:49:25;102629.36;;;14.60;54.54
63194;BME280;49289;51.670;5.624;2023-04-09T05:51:13;102616.05;;;14.56;54.58
63194;BME280;49289;51.670;5.624;2023-04-09T05:53:01;102620.41;;;14.16;55.26
63194;BME280;49289;51.670;5.624;2023-04-09T05:54:49;102636.87;;;14.58;54.85
63194;BME280;49289;51.670;5.624;2023-04-09T05:56:37;102615.23;;;14.58;54.61
63194;BME280;49289;51.670;5.624;2023-04-09T05:58:25;102617.10;;;14.54;54.58
63194;BME280;49289;51.670;5.624;2023-04-09T06:00:13;102618.53;;;14.21;55.12
63194;BME280;49289;51.670;5.624;2023-04-09T06:02:00;102634.77;;;14.37;55.21
63194;BME280;49289;51.670;5.624;2023-04-09T06:03:47;102629.64;;;14.48;55.12
63194;BME280;49289;51.670;5.624;2023-04-09T06:05:34;102619.33;;;14.56;54.63
63194;BME280;49289;51.670;5.624;2023-04-09T06:07:21;102622.38;;;14.76;54.18
63194;BME280;49289;51.670;5.624;2023-04-09T06:09:08;102620.11;;;14.86;54.16
63194;BME280;49289;51.670;5.624;2023-04-09T06:10:55;102628.91;;;14.29;55.29
63194;BME280;49289;51.670;5.624;2023-04-09T06:12:42;102628.75;;;14.28;55.44
63194;BME280;49289;51.670;5.624;2023-04-09T06:14:29;102622.70;;;13.89;56.07
63194;BME280;49289;51.670;5.624;2023-04-09T06:16:17;102625.88;;;13.77;56.92
63194;BME280;49289;51.670;5.624;2023-04-09T06:18:04;102628.17;;;14.24;55.68
63194;BME280;49289;51.670;5.624;2023-04-09T06:19:52;102641.16;;;14.78;54.83
63194;BME280;49289;51.670;5.624;2023-04-09T06:21:40;102640.31;;;14.93;54.30
63194;BME280;49289;51.670;5.624;2023-04-09T06:23:28;102627.19;;;14.67;54.55
63194;BME280;49289;51.670;5.624;2023-04-09T06:25:16;102624.33;;;14.63;54.45
63194;BME280;49289;51.670;5.624;2023-04-09T06:27:04;102648.09;;;14.81;54.67
63194;BME280;49289;51.670;5.624;2023-04-09T06:28:51;102634.43;;;14.56;54.88
63194;BME280;49289;51.670;5.624;2023-04-09T06:30:39;102652.57;;;14.61;54.80
63194;BME280;49289;51.670;5.624;2023-04-09T06:32:28;102641.65;;;14.55;54.56
63194;BME280;49289;51.670;5.624;2023-04-09T06:34:16;102641.00;;;14.45;54.53
63194;BME280;49289;51.670;5.624;2023-04-09T06:36:04;102638.85;;;14.89;54.15
63194;BME280;49289;51.670;5.624;2023-04-09T06:37:52;102642.91;;;14.97;53.52
63194;BME280;49289;51.670;5.624;2023-04-09T06:39:40;102640.05;;;14.83;53.95
63194;BME280;49289;51.670;5.624;2023-04-09T06:41:28;102659.91;;;14.61;54.64
63194;BME280;49289;51.670;5.624;2023-04-09T06:43:16;102644.05;;;14.48;54.74
63194;BME280;49289;51.670;5.624;2023-04-09T06:45:04;102646.05;;;14.67;54.79
63194;BME280;49289;51.670;5.624;2023-04-09T06:46:52;102645.92;;;15.01;53.79
63194;BME280;49289;51.670;5.624;2023-04-09T06:48:40;102646.91;;;14.77;53.39
63194;BME280;49289;51.670;5.624;2023-04-09T06:50:28;102672.10;;;14.83;54.31
63194;BME280;49289;51.670;5.624;2023-04-09T06:52:16;102647.86;;;14.36;54.75
63194;BME280;49289;51.670;5.624;2023-04-09T06:54:03;102641.11;;;14.91;54.16
63194;BME280;49289;51.670;5.624;2023-04-09T06:55:50;102642.25;;;15.19;53.59
63194;BME280;49289;51.670;5.624;2023-04-09T06:57:37;102646.02;;;14.90;53.63
63194;BME280;49289;51.670;5.624;2023-04-09T06:59:24;102645.30;;;14.16;54.92
63194;BME280;49289;51.670;5.624;2023-04-09T07:01:11;102644.77;;;14.56;54.97
63194;BME280;49289;51.670;5.624;2023-04-09T07:02:58;102661.67;;;15.17;53.55
63194;BME280;49289;51.670;5.624;2023-04-09T07:04:45;102660.69;;;15.16;53.62
63194;BME280;49289;51.670;5.624;2023-04-09T07:06:32;102665.05;;;14.98;54.14
63194;BME280;49289;51.670;5.624;2023-04-09T07:08:19;102650.56;;;14.83;54.39
63194;BME280;49289;51.670;5.624;2023-04-09T07:10:06;102647.39;;;15.11;53.96
63194;BME280;49289;51.670;5.624;2023-04-09T07:11:53;102648.11;;;15.30;53.25
63194;BME280;49289;51.670;5.624;2023-04-09T07:13:40;102648.16;;;15.45;52.84
63194;BME280;49289;51.670;5.624;2023-04-09T07:15:27;102667.03;;;15.71;52.45
63194;BME280;49289;51.670;5.624;2023-04-09T07:17:14;102670.26;;;15.88;52.38
63194;BME280;49289;51.670;5.624;2023-04-09T07:19:01;102651.91;;;15.94;52.29
63194;BME280;49289;51.670;5.624;2023-04-09T07:20:48;102650.58;;;15.90;51.79
63194;BME280;49289;51.670;5.624;2023-04-09T07:22:35;102654.64;;;15.83;51.94
63194;BME280;49289;51.670;5.624;2023-04-09T07:24:22;102656.02;;;15.80;52.04
63194;BME280;49289;51.670;5.624;2023-04-09T07:26:09;102675.28;;;15.94;52.15
63194;BME280;49289;51.670;5.624;2023-04-09T07:27:56;102654.37;;;16.00;51.67
63194;BME280;49289;51.670;5.624;2023-04-09T07:29:41;102671.65;;;16.38;51.26
63194;BME280;49289;51.670;5.624;2023-04-09T07:31:28;102656.13;;;16.37;51.40
63194;BME280;49289;51.670;5.624;2023-04-09T07:33:15;102658.36;;;16.53;50.92
63194;BME280;49289;51.670;5.624;2023-04-09T07:35:02;102652.27;;;16.80;50.70
63194;BME280;49289;51.670;5.624;2023-04-09T07:36:50;102660.31;;;16.73;50.98
63194;BME280;49289;51.670;5.624;2023-04-09T07:38:39;102651.00;;;16.85;50.45
63194;BME280;49289;51.670;5.624;2023-04-09T07:40:26;102665.73;;;16.88;50.07
63194;BME280;49289;51.670;5.624;2023-04-09T07:42:13;102663.95;;;17.17;49.70
63194;BME280;49289;51.670;5.624;2023-04-09T07:44:01;102647.39;;;17.18;49.42
63194;BME280;49289;51.670;5.624;2023-04-09T07:45:49;102650.86;;;16.75;49.88
63194;BME280;49289;51.670;5.624;2023-04-09T07:47:37;102660.91;;;17.01;49.74
63194;BME280;49289;51.670;5.624;2023-04-09T07:49:25;102649.17;;;17.38;49.28
63194;BME280;49289;51.670;5.624;2023-04-09T07:51:13;102664.42;;;17.61;49.02
63194;BME280;49289;51.670;5.624;2023-04-09T07:53:01;102645.84;;;17.51;48.34
63194;BME280;49289;51.670;5.624;2023-04-09T07:54:49;102648.71;;;17.68;48.35
63194;BME280;49289;51.670;5.624;2023-04-09T07:56:37;102642.38;;;17.32;48.75
63194;BME280;49289;51.670;5.624;2023-04-09T07:58:25;102658.11;;;17.30;48.96
63194;BME280;49289;51.670;5.624;2023-04-09T08:00:14;102658.23;;;17.39;48.83
63194;BME280;49289;51.670;5.624;2023-04-09T08:02:01;102643.25;;;16.99;49.16
63194;BME280;49289;51.670;5.624;2023-04-09T08:03:48;102636.32;;;17.92;48.10
63194;BME280;49289;51.670;5.624;2023-04-09T08:05:36;102651.39;;;17.95;48.39
63194;BME280;49289;51.670;5.624;2023-04-09T08:07:24;102642.09;;;17.36;48.98
63194;BME280;49289;51.670;5.624;2023-04-09T08:09:12;102642.75;;;17.86;48.69
63194;BME280;49289;51.670;5.624;2023-04-09T08:11:00;102650.87;;;18.15;48.32
63194;BME280;49289;51.670;5.624;2023-04-09T08:12:48;102644.54;;;18.60;47.33
63194;BME280;49289;51.670;5.624;2023-04-09T08:14:36;102658.39;;;18.71;46.76
63194;BME280;49289;51.670;5.624;2023-04-09T08:16:24;102658.12;;;19.19;46.44
63194;BME280;49289;51.670;5.624;2023-04-09T08:18:12;102659.73;;;19.67;45.47
63194;BME280;49289;51.670;5.624;2023-04-09T08:20:00;102643.80;;;19.62;44.71
63194;BME280;49289;51.670;5.624;2023-04-09T08:21:49;102640.02;;;19.29;43.81
63194;BME280;49289;51.670;5.624;2023-04-09T08:23:36;102643.42;;;19.58;44.44
63194;BME280;49289;51.670;5.624;2023-04-09T08:25:23;102635.95;;;19.06;44.26
63194;BME280;49289;51.670;5.624;2023-04-09T08:27:10;102644.08;;;18.76;45.12
63194;BME280;49289;51.670;5.624;2023-04-09T08:28:57;102653.48;;;19.31;44.43
63194;BME280;49289;51.670;5.624;2023-04-09T08:30:44;102653.94;;;18.90;44.22
63194;BME280;49289;51.670;5.624;2023-04-09T08:32:31;102639.12;;;19.40;43.71
63194;BME280;49289;51.670;5.624;2023-04-09T08:34:19;102641.41;;;19.55;43.69
63194;BME280;49289;51.670;5.624;2023-04-09T08:36:08;102638.88;;;18.88;44.86
63194;BME280;49289;51.670;5.624;2023-04-09T08:37:56;102654.77;;;19.22;45.27
63194;BME280;49289;51.670;5.624;2023-04-09T08:39:44;102655.88;;;18.73;44.88
63194;BME280;49289;51.670;5.624;2023-04-09T08:41:32;102656.86;;;19.35;44.92
63194;BME280;49289;51.670;5.624;2023-04-09T08:43:20;102639.31;;;19.14;45.08
63194;BME280;49289;51.670;5.624;2023-04-09T08:45:08;102654.75;;;19.37;45.11
63194;BME280;49289;51.670;5.624;2023-04-09T08:46:55;102655.53;;;19.56;43.63
63194;BME280;49289;51.670;5.624;2023-04-09T08:48:42;102653.55;;;19.87;43.47
63194;BME280;49289;51.670;5.624;2023-04-09T08:50:30;102641.84;;;19.65;43.13
63194;BME280;49289;51.670;5.624;2023-04-09T08:52:17;102649.66;;;19.98;43.15
63194;BME280;49289;51.670;5.624;2023-04-09T08:54:06;102653.23;;;20.05;42.40
63194;BME280;49289;51.670;5.624;2023-04-09T08:55:53;102635.31;;;19.64;42.65
63194;BME280;49289;51.670;5.624;2023-04-09T08:57:42;102650.31;;;19.74;42.97
63194;BME280;49289;51.670;5.624;2023-04-09T08:59:30;102632.55;;;19.77;42.91
63194;BME280;49289;51.670;5.624;2023-04-09T09:01:27;102641.50;;;19.60;43.58
63194;BME280;49289;51.670;5.624;2023-04-09T09:03:14;102629.63;;;19.82;44.21
63194;BME280;49289;51.670;5.624;2023-04-09T09:05:02;102642.63;;;19.16;43.79
63194;BME280;49289;51.670;5.624;2023-04-09T09:06:49;102624.31;;;19.77;43.33
63194;BME280;49289;51.670;5.624;2023-04-09T09:08:36;102625.92;;;19.53;43.68
63194;BME280;49289;51.670;5.624;2023-04-09T09:10:23;102625.78;;;19.61;42.92
63194;BME280;49289;51.670;5.624;2023-04-09T09:12:10;102637.31;;;19.53;42.84
63194;BME280;49289;51.670;5.624;2023-04-09T09:14:02;102625.67;;;19.53;42.97
63194;BME280;49289;51.670;5.624;2023-04-09T09:15:49;102617.86;;;19.26;42.97
63194;BME280;49289;51.670;5.624;2023-04-09T09:17:38;102623.41;;;19.53;42.61
63194;BME280;49289;51.670;5.624;2023-04-09T09:19:32;102638.02;;;19.85;41.95
63194;BME280;49289;51.670;5.624;2023-04-09T09:21:24;102625.71;;;19.89;42.45
63194;BME280;49289;51.670;5.624;2023-04-09T09:23:10;102642.35;;;19.81;41.48
63194;BME280;49289;51.670;5.624;2023-04-09T09:24:58;102624.76;;;19.88;41.91
63194;BME280;49289;51.670;5.624;2023-04-09T09:26:46;102635.02;;;20.40;41.36